createdAt,value
2022-12-01T00:01:07.364Z,96837.84
2022-12-01T00:03:34.786Z,96838.59
2022-12-01T00:06:03.489Z,96816.13
2022-12-01T00:08:30.702Z,96815.13
2022-12-01T00:11:08.800Z,96839.78
2022-12-01T00:13:36.546Z,96807.66
2022-12-01T00:16:16.937Z,96832.97
2022-12-01T00:18:44.296Z,96792.75
2022-12-01T00:21:15.098Z,96821.53
2022-12-01T00:23:50.566Z,96830.41
2022-12-01T00:26:18.624Z,96822.09
2022-12-01T00:28:50.274Z,96826.25
2022-12-01T00:31:16.978Z,96805.09
2022-12-01T00:33:43.603Z,96803.84
2022-12-01T00:36:10.216Z,96808.25
2022-12-01T00:38:37.461Z,96809.25
2022-12-01T00:41:04.414Z,96792.81
2022-12-01T00:43:31.245Z,96804.03
2022-12-01T00:45:57.958Z,96786.47
2022-12-01T00:48:24.993Z,96805.81
2022-12-01T00:50:53.014Z,96825.06
2022-12-01T00:53:19.777Z,96796.38
2022-12-01T00:55:46.711Z,96805.13
2022-12-01T00:58:13.327Z,96806.63
2022-12-01T01:00:39.932Z,96824.88
2022-12-01T01:03:07.114Z,96814.66
2022-12-01T01:05:37.951Z,96833.28
2022-12-01T01:08:13.071Z,96800.94
2022-12-01T01:10:41.465Z,96835.91
2022-12-01T01:13:08.354Z,96840.94
2022-12-01T01:15:35.351Z,96832.06
2022-12-01T01:18:02.127Z,96834.34
2022-12-01T01:20:29.008Z,96835.66
2022-12-01T01:22:55.649Z,96812.88
2022-12-01T01:25:22.813Z,96825.78
2022-12-01T01:27:49.756Z,96811.06
2022-12-01T01:30:17.142Z,96797.47
2022-12-01T01:32:43.746Z,96815.38
2022-12-01T01:35:10.439Z,96822.19
2022-12-01T01:37:36.995Z,96829.38
2022-12-01T01:40:04.630Z,96839.22
2022-12-01T01:42:31.241Z,96834.50
2022-12-01T01:44:58.863Z,96845.38
2022-12-01T01:47:30.624Z,96844.00
2022-12-01T01:50:05.217Z,96836.44
2022-12-01T01:52:34.444Z,96839.28
2022-12-01T01:55:01.085Z,96798.28
2022-12-01T01:57:31.657Z,96831.97
2022-12-01T02:00:04.376Z,96828.66
2022-12-01T02:02:44.755Z,96820.53
2022-12-01T02:05:24.736Z,96833.56
2022-12-01T02:07:53.568Z,96826.00
2022-12-01T02:10:23.987Z,96821.22
2022-12-01T02:13:15.921Z,96815.00
2022-12-01T02:15:47.856Z,96760.66
2022-12-01T02:18:35.069Z,96817.25
2022-12-01T02:21:07.836Z,96828.53
2022-12-01T02:23:58.885Z,96826.47
2022-12-01T02:26:43.878Z,96817.25
2022-12-01T02:29:13.472Z,96818.69
2022-12-01T02:31:47.487Z,96826.28
2022-12-01T02:34:30.054Z,96824.53
2022-12-01T02:37:05.499Z,96808.25
2022-12-01T02:39:38.187Z,96800.47
2022-12-01T02:42:34.572Z,96808.56
2022-12-01T02:45:05.967Z,96825.94
2022-12-01T02:47:33.947Z,96804.75
2022-12-01T02:50:03.027Z,96827.13
2022-12-01T02:52:30.461Z,96788.94
2022-12-01T02:54:57.232Z,96809.94
2022-12-01T02:57:24.273Z,96819.34
2022-12-01T02:59:54.826Z,96828.31
2022-12-01T03:02:43.531Z,96785.91
2022-12-01T03:05:14.307Z,96815.72
2022-12-01T03:08:19.973Z,96820.97
2022-12-01T03:10:53.683Z,96824.28
2022-12-01T03:14:10.055Z,96799.09
2022-12-01T03:16:53.362Z,96820.06
2022-12-01T03:19:37.272Z,96816.69
2022-12-01T03:22:24.752Z,96821.38
2022-12-01T03:24:55.791Z,96811.72
2022-12-01T03:27:29.579Z,96821.38
2022-12-01T03:29:59.771Z,96823.91
2022-12-01T03:32:43.613Z,96787.56
2022-12-01T03:35:17.445Z,96769.25
2022-12-01T03:38:08.174Z,96810.09
2022-12-01T03:40:37.400Z,96761.66
2022-12-01T03:43:09.616Z,96753.53
2022-12-01T03:46:04.016Z,96807.09
2022-12-01T03:48:31.364Z,96801.44
2022-12-01T03:51:22.084Z,96808.28
2022-12-01T03:54:19.342Z,96803.47
2022-12-01T03:56:55.355Z,96793.75
2022-12-01T03:59:24.991Z,96790.63
2022-12-01T04:01:51.847Z,96779.69
2022-12-01T04:04:18.898Z,96798.78
2022-12-01T04:06:48.818Z,96782.28
2022-12-01T04:09:15.492Z,96801.22
2022-12-01T04:12:00.759Z,96791.72
2022-12-01T04:14:27.432Z,96783.75
2022-12-01T04:16:53.982Z,96779.34
2022-12-01T04:19:20.616Z,96809.81
2022-12-01T04:21:47.246Z,96816.34
2022-12-01T04:24:13.939Z,96814.69
2022-12-01T04:26:40.588Z,96804.41
2022-12-01T04:29:09.667Z,96783.19
2022-12-01T04:31:36.480Z,96771.09
2022-12-01T04:34:03.803Z,96811.97
2022-12-01T04:36:32.472Z,96805.91
2022-12-01T04:38:59.497Z,96798.00
2022-12-01T04:41:26.525Z,96785.13
2022-12-01T04:43:54.596Z,96769.44
2022-12-01T04:46:22.130Z,96791.00
2022-12-01T04:48:48.929Z,96808.78
2022-12-01T04:51:15.595Z,96778.59
2022-12-01T04:53:42.226Z,96785.69
2022-12-01T04:56:08.929Z,96775.47
2022-12-01T04:58:37.784Z,96798.16
2022-12-01T05:01:06.603Z,96796.91
2022-12-01T05:03:40.088Z,96794.06
2022-12-01T05:06:12.625Z,96789.31
2022-12-01T05:08:39.786Z,96796.69
2022-12-01T05:11:08.086Z,96771.09
2022-12-01T05:13:37.346Z,96789.94
2022-12-01T05:16:09.349Z,96798.81
2022-12-01T05:18:36.167Z,96784.66
2022-12-01T05:21:04.899Z,96801.63
2022-12-01T05:23:33.597Z,96797.00
2022-12-01T05:26:01.458Z,96799.34
2022-12-01T05:28:28.219Z,96775.56
2022-12-01T05:30:55.191Z,96783.72
2022-12-01T05:33:28.224Z,96787.50
2022-12-01T05:35:55.464Z,96777.50
2022-12-01T05:38:22.049Z,96790.63
2022-12-01T05:40:53.580Z,96796.72
2022-12-01T05:43:27.152Z,96791.53
2022-12-01T05:45:55.613Z,96789.00
2022-12-01T05:48:22.376Z,96764.69
2022-12-01T05:50:48.968Z,96792.34
2022-12-01T05:53:15.978Z,96809.03
2022-12-01T05:55:42.823Z,96793.84
2022-12-01T05:58:10.479Z,96780.44
2022-12-01T06:00:43.869Z,96747.06
2022-12-01T06:03:12.766Z,96762.25
2022-12-01T06:05:39.985Z,96792.28
2022-12-01T06:08:06.677Z,96770.38
2022-12-01T06:10:33.369Z,96763.03
2022-12-01T06:13:00.205Z,96785.44
2022-12-01T06:15:27.566Z,96790.53
2022-12-01T06:17:54.367Z,96765.72
2022-12-01T06:20:20.969Z,96780.31
2022-12-01T06:22:47.549Z,96761.91
2022-12-01T06:25:14.106Z,96796.34
2022-12-01T06:27:40.713Z,96790.19
2022-12-01T06:30:07.990Z,96783.72
2022-12-01T06:32:34.674Z,96792.88
2022-12-01T06:35:01.269Z,96815.09
2022-12-01T06:37:28.438Z,96791.91
2022-12-01T06:39:55.138Z,96805.41
2022-12-01T06:42:21.994Z,96810.34
2022-12-01T06:44:48.703Z,96789.75
2022-12-01T06:47:15.947Z,96809.53
2022-12-01T06:49:42.816Z,96754.34
2022-12-01T06:52:09.992Z,96829.19
2022-12-01T06:54:37.567Z,96800.13
2022-12-01T06:57:04.538Z,96820.09
2022-12-01T06:59:31.362Z,96807.75
2022-12-01T07:01:58.396Z,96784.91
2022-12-01T07:04:25.063Z,96834.78
2022-12-01T07:06:51.647Z,96809.56
2022-12-01T07:09:18.257Z,96824.69
2022-12-01T07:11:44.832Z,96783.31
2022-12-01T07:14:20.257Z,96840.41
2022-12-01T07:16:46.915Z,96798.59
2022-12-01T07:19:13.600Z,96816.34
2022-12-01T07:21:40.207Z,96797.75
2022-12-01T07:24:07.178Z,96799.06
2022-12-01T07:26:34.077Z,96831.66
2022-12-01T07:29:00.800Z,96806.28
2022-12-01T07:31:27.484Z,96804.44
2022-12-01T07:33:54.103Z,96842.22
2022-12-01T07:36:21.084Z,96826.16
2022-12-01T07:38:48.032Z,96834.97
2022-12-01T07:41:18.977Z,96826.59
2022-12-01T07:43:46.210Z,96832.22
2022-12-01T07:46:21.795Z,96838.75
2022-12-01T07:48:49.241Z,96815.56
2022-12-01T07:51:17.167Z,96837.78
2022-12-01T07:53:45.345Z,96830.00
2022-12-01T07:56:12.468Z,96831.03
2022-12-01T07:58:39.293Z,96822.06
2022-12-01T08:01:12.430Z,96836.59
2022-12-01T08:03:39.610Z,96839.72
2022-12-01T08:06:07.604Z,96800.13
2022-12-01T08:08:36.010Z,96850.56
2022-12-01T08:11:05.332Z,96844.41
2022-12-01T08:13:31.930Z,96738.97
2022-12-01T08:15:58.530Z,96840.72
2022-12-01T08:18:25.208Z,96837.28
2022-12-01T08:20:51.888Z,96824.47
2022-12-01T08:23:18.518Z,96845.19
2022-12-01T08:25:45.141Z,96811.19
2022-12-01T08:28:11.765Z,96822.84
2022-12-01T08:30:38.539Z,96841.69
2022-12-01T08:33:05.095Z,96818.47
2022-12-01T08:35:33.852Z,96808.28
2022-12-01T08:38:00.422Z,96808.69
2022-12-01T08:40:27.028Z,96857.88
2022-12-01T08:42:53.645Z,96840.25
2022-12-01T08:45:20.552Z,96824.56
2022-12-01T08:47:47.532Z,96805.59
2022-12-01T08:50:14.309Z,96829.16
2022-12-01T08:52:40.977Z,96843.31
2022-12-01T08:55:08.307Z,96802.28
2022-12-01T08:57:35.000Z,96849.88
2022-12-01T09:00:01.818Z,96860.31
2022-12-01T09:02:28.578Z,96852.00
2022-12-01T09:04:55.668Z,96841.06
2022-12-01T09:07:26.305Z,96836.94
2022-12-01T09:09:53.521Z,96849.00
2022-12-01T09:12:20.221Z,96844.06
2022-12-01T09:14:49.849Z,96856.66
2022-12-01T09:17:17.586Z,96865.56
2022-12-01T09:19:44.466Z,96842.31
2022-12-01T09:22:12.103Z,96860.97
2022-12-01T09:24:39.143Z,96873.03
2022-12-01T09:27:06.477Z,96856.81
2022-12-01T09:29:33.278Z,96810.59
2022-12-01T09:32:00.432Z,96859.22
2022-12-01T09:34:28.984Z,96868.09
2022-12-01T09:36:58.249Z,96889.56
2022-12-01T09:39:25.725Z,96855.63
2022-12-01T09:42:12.880Z,96891.19
2022-12-01T09:44:45.083Z,96888.34
2022-12-01T09:47:15.015Z,96858.34
2022-12-01T09:49:51.779Z,96882.63
2022-12-01T09:52:19.838Z,96889.97
2022-12-01T09:54:49.620Z,96841.16
2022-12-01T09:57:28.647Z,96868.81
2022-12-01T09:59:57.101Z,96830.97
2022-12-01T10:02:29.319Z,96871.16
2022-12-01T10:04:58.592Z,96869.31
2022-12-01T10:07:32.892Z,96845.06
2022-12-01T10:10:02.978Z,96874.28
2022-12-01T10:12:33.301Z,96856.81
2022-12-01T10:15:15.296Z,96872.97
2022-12-01T10:18:02.725Z,96849.78
2022-12-01T10:20:44.684Z,96877.16
2022-12-01T10:23:29.411Z,96868.28
2022-12-01T10:25:59.522Z,96865.41
2022-12-01T10:28:32.279Z,96836.69
2022-12-01T10:31:20.152Z,96817.91
2022-12-01T10:33:58.753Z,96851.03
2022-12-01T10:36:26.934Z,96839.28
2022-12-01T10:38:54.076Z,96828.59
2022-12-01T10:41:23.789Z,96863.84
2022-12-01T10:43:53.986Z,96838.50
2022-12-01T10:46:28.866Z,96852.53
2022-12-01T10:49:07.348Z,96851.25
2022-12-01T10:51:46.976Z,96858.56
2022-12-01T10:54:13.807Z,96852.56
2022-12-01T10:56:42.946Z,96857.22
2022-12-01T10:59:24.545Z,96850.50
2022-12-01T11:01:51.366Z,96813.69
2022-12-01T11:04:35.460Z,96854.63
2022-12-01T11:07:03.301Z,96817.59
2022-12-01T11:09:31.344Z,96831.16
2022-12-01T11:12:00.492Z,96831.66
2022-12-01T11:14:49.531Z,96847.06
2022-12-01T11:17:34.854Z,96842.34
2022-12-01T11:20:28.170Z,96848.09
2022-12-01T11:23:10.117Z,96852.53
2022-12-01T11:25:36.978Z,96834.25
2022-12-01T11:28:04.592Z,96833.22
2022-12-01T11:30:32.838Z,96784.47
2022-12-01T11:33:02.373Z,96779.28
2022-12-01T11:35:35.151Z,96840.81
2022-12-01T11:40:57.413Z,96827.19
2022-12-01T11:43:23.980Z,96827.19
2022-12-01T11:45:51.419Z,96814.19
2022-12-01T11:48:25.873Z,96828.25
2022-12-01T11:51:15.347Z,96823.28
2022-12-01T11:53:43.501Z,96815.69
2022-12-01T11:56:13.063Z,96835.53
2022-12-01T11:58:40.164Z,96808.09
2022-12-01T12:01:44.114Z,96825.56
2022-12-01T12:04:51.724Z,96834.19
2022-12-01T12:07:33.452Z,96831.03
2022-12-01T12:10:12.956Z,96832.59
2022-12-01T12:12:48.634Z,96829.69
2022-12-01T12:15:37.416Z,96829.94
2022-12-01T12:18:16.132Z,96826.00
2022-12-01T12:21:08.645Z,96808.81
2022-12-01T12:24:05.968Z,96801.81
2022-12-01T12:26:52.148Z,96808.03
2022-12-01T12:29:46.602Z,96809.84
2022-12-01T12:32:36.139Z,96763.97
2022-12-01T12:35:21.670Z,96811.66
2022-12-01T12:37:54.682Z,96810.88
2022-12-01T12:40:40.098Z,96810.13
2022-12-01T12:43:22.622Z,96805.91
2022-12-01T12:46:04.517Z,96813.69
2022-12-01T12:49:03.597Z,96802.47
2022-12-01T12:51:43.106Z,96796.22
2022-12-01T12:54:13.991Z,96807.38
2022-12-01T12:56:49.352Z,96807.19
2022-12-01T12:59:26.870Z,96804.03
2022-12-01T13:02:18.769Z,96804.50
2022-12-01T13:05:00.226Z,96772.00
2022-12-01T13:07:37.544Z,96807.72
2022-12-01T13:10:16.463Z,96754.06
2022-12-01T13:12:51.381Z,96782.75
2022-12-01T13:15:20.626Z,96806.50
2022-12-01T13:17:55.049Z,96792.13
2022-12-01T13:20:27.665Z,96790.53
2022-12-01T13:22:57.923Z,96790.75
2022-12-01T13:25:32.744Z,96761.00
2022-12-01T13:28:02.151Z,96760.00
2022-12-01T13:30:29.119Z,96786.09
2022-12-01T13:33:04.881Z,96796.22
2022-12-01T13:35:35.300Z,96788.66
2022-12-01T13:38:27.018Z,96805.34
2022-12-01T13:41:25.857Z,96799.06
2022-12-01T13:44:07.569Z,96787.91
2022-12-01T13:46:36.941Z,96791.59
2022-12-01T13:49:04.199Z,96779.09
2022-12-01T13:52:08.996Z,96792.81
2022-12-01T13:54:37.629Z,96769.94
2022-12-01T13:57:10.928Z,96782.97
2022-12-01T14:00:01.691Z,96775.16
2022-12-01T14:02:39.006Z,96744.44
2022-12-01T14:05:24.456Z,96784.56
2022-12-01T14:07:53.187Z,96753.06
2022-12-01T14:10:27.419Z,96780.94
2022-12-01T14:12:57.822Z,96766.34
2022-12-01T14:15:31.126Z,96783.06
2022-12-01T14:18:04.836Z,96775.75
2022-12-01T14:20:37.819Z,96764.56
2022-12-01T14:23:14.038Z,96761.69
2022-12-01T14:25:42.538Z,96767.41
2022-12-01T14:28:47.428Z,96779.63
2022-12-01T14:31:14.717Z,96737.63
2022-12-01T14:33:51.213Z,96780.44
2022-12-01T14:36:23.928Z,96777.06
2022-12-01T14:38:59.661Z,96782.28
2022-12-01T14:41:30.915Z,96782.81
2022-12-01T14:44:10.698Z,96734.38
2022-12-01T14:46:48.914Z,96771.41
2022-12-01T14:49:29.362Z,96758.09
2022-12-01T14:52:06.961Z,96769.03
2022-12-01T14:54:44.673Z,96744.81
2022-12-01T14:57:17.248Z,96758.59
2022-12-01T14:59:44.705Z,96755.97
2022-12-01T15:02:12.208Z,96733.34
2022-12-01T15:05:08.613Z,96765.63
2022-12-01T15:07:44.456Z,96762.53
2022-12-01T15:10:48.849Z,96776.34
2022-12-01T15:13:21.548Z,96771.38
2022-12-01T15:15:53.838Z,96741.69
2022-12-01T15:18:26.805Z,96745.06
2022-12-01T15:21:03.471Z,96771.13
2022-12-01T15:23:30.102Z,96745.59
2022-12-01T15:25:57.388Z,96768.75
2022-12-01T15:28:33.433Z,96764.06
2022-12-01T15:31:01.797Z,96771.09
2022-12-01T15:33:37.180Z,96765.38
2022-12-01T15:36:04.761Z,96776.34
2022-12-01T15:38:36.445Z,96770.09
2022-12-01T15:43:57.427Z,96729.72
2022-12-01T15:46:32.539Z,96777.16
2022-12-01T15:49:19.389Z,96774.31
2022-12-01T15:51:48.918Z,96776.88
2022-12-01T15:54:24.565Z,96767.00
2022-12-01T15:56:54.841Z,96776.38
2022-12-01T15:59:36.601Z,96770.94
2022-12-01T16:02:20.855Z,96770.91
2022-12-01T16:04:49.321Z,96769.59
2022-12-01T16:07:16.376Z,96737.81
2022-12-01T16:10:03.577Z,96765.97
2022-12-01T16:12:36.696Z,96750.84
2022-12-01T16:15:15.526Z,96771.94
2022-12-01T16:17:46.663Z,96757.38
2022-12-01T16:20:32.731Z,96769.38
2022-12-01T16:23:09.461Z,96747.69
2022-12-01T16:25:43.541Z,96770.38
2022-12-01T16:28:47.014Z,96780.81
2022-12-01T16:31:23.071Z,96741.19
2022-12-01T16:34:06.537Z,96775.34
2022-12-01T16:36:40.679Z,96774.03
2022-12-01T16:39:10.375Z,96771.72
2022-12-01T16:41:41.095Z,96736.75
2022-12-01T16:46:56.520Z,96771.72
2022-12-01T16:49:23.136Z,96745.13
2022-12-01T16:51:55.780Z,96761.25
2022-12-01T16:54:22.966Z,96777.94
2022-12-01T16:56:49.618Z,96752.41
2022-12-01T16:59:16.246Z,96744.34
2022-12-01T17:01:42.938Z,96764.19
2022-12-01T17:04:09.614Z,96775.41
2022-12-01T17:06:38.347Z,96783.72
2022-12-01T17:09:05.964Z,96773.81
2022-12-01T17:11:33.203Z,96776.19
2022-12-01T17:14:00.037Z,96755.28
2022-12-01T17:16:26.918Z,96785.03
2022-12-01T17:18:53.747Z,96751.41
2022-12-01T17:21:20.435Z,96747.25
2022-12-01T17:23:47.034Z,96722.72
2022-12-01T17:26:16.378Z,96796.25
2022-12-01T17:28:43.048Z,96770.94
2022-12-01T17:31:10.469Z,96775.13
2022-12-01T17:33:37.855Z,96761.84
2022-12-01T17:36:15.059Z,96783.75
2022-12-01T17:38:45.326Z,96781.66
2022-12-01T17:41:15.329Z,96782.69
2022-12-01T17:43:42.514Z,96779.28
2022-12-01T17:46:11.638Z,96787.94
2022-12-01T17:48:40.510Z,96769.13
2022-12-01T17:51:08.922Z,96788.97
2022-12-01T17:53:36.983Z,96793.91
2022-12-01T17:56:12.195Z,96713.63
2022-12-01T17:58:39.453Z,96795.25
2022-12-01T18:01:12.476Z,96789.50
2022-12-01T18:03:40.484Z,96765.25
2022-12-01T18:06:07.553Z,96766.78
2022-12-01T18:08:36.087Z,96792.63
2022-12-01T18:11:07.811Z,96777.22
2022-12-01T18:13:44.941Z,96756.09
2022-12-01T18:16:17.784Z,96785.84
2022-12-01T18:18:44.479Z,96793.69
2022-12-01T18:21:14.200Z,96794.72
2022-12-01T18:23:41.351Z,96802.28
2022-12-01T18:26:15.705Z,96806.72
2022-12-01T18:28:43.489Z,96764.97
2022-12-01T18:31:15.496Z,96799.41
2022-12-01T18:33:44.232Z,96803.84
2022-12-01T18:36:18.525Z,96815.06
2022-12-01T18:38:47.276Z,96799.16
2022-12-01T18:41:14.696Z,96790.53
2022-12-01T18:43:41.643Z,96814.78
2022-12-01T18:46:08.477Z,96805.66
2022-12-01T18:48:35.626Z,96809.06
2022-12-01T18:51:03.874Z,96794.97
2022-12-01T18:53:30.715Z,96782.69
2022-12-01T18:55:57.443Z,96769.13
2022-12-01T18:58:24.083Z,96794.44
2022-12-01T19:00:50.772Z,96782.16
2022-12-01T19:03:17.430Z,96782.66
2022-12-01T19:05:44.104Z,96779.28
2022-12-01T19:08:10.840Z,96757.09
2022-12-01T19:10:40.216Z,96779.03
2022-12-01T19:13:07.693Z,96762.31
2022-12-01T19:15:38.610Z,96793.09
2022-12-01T19:18:05.491Z,96787.88
2022-12-01T19:20:32.252Z,96793.59
2022-12-01T19:22:59.206Z,96769.38
2022-12-01T19:25:25.923Z,96788.16
2022-12-01T19:27:53.208Z,96764.38
2022-12-01T19:30:20.154Z,96744.81
2022-12-01T19:32:46.779Z,96765.16
2022-12-01T19:35:13.549Z,96748.44
2022-12-01T19:37:40.278Z,96747.66
2022-12-01T19:40:07.807Z,96793.81
2022-12-01T19:42:34.559Z,96754.19
2022-12-01T19:45:01.558Z,96794.88
2022-12-01T19:47:34.208Z,96791.44
2022-12-01T19:50:01.715Z,96802.16
2022-12-01T19:52:31.164Z,96760.66
2022-12-01T19:54:57.925Z,96764.81
2022-12-01T19:57:24.752Z,96774.72
2022-12-01T19:59:53.183Z,96759.31
2022-12-01T20:02:22.957Z,96797.69
2022-12-01T20:04:52.984Z,96771.28
2022-12-01T20:07:19.914Z,96743.41
2022-12-01T20:09:49.882Z,96781.25
2022-12-01T20:12:17.044Z,96796.63
2022-12-01T20:14:43.863Z,96772.59
2022-12-01T20:17:15.589Z,96790.34
2022-12-01T20:19:42.619Z,96772.06
2022-12-01T20:22:09.367Z,96776.75
2022-12-01T20:24:39.720Z,96778.88
2022-12-01T20:27:06.614Z,96749.09
2022-12-01T20:29:33.799Z,96788.72
2022-12-01T20:32:02.995Z,96791.66
2022-12-01T20:34:35.561Z,96782.47
2022-12-01T20:37:03.055Z,96775.47
2022-12-01T20:39:38.284Z,96791.38
2022-12-01T20:42:15.571Z,96777.53
2022-12-01T20:44:42.439Z,96791.41
2022-12-01T20:47:12.004Z,96778.88
2022-12-01T20:49:44.092Z,96759.78
2022-12-01T20:52:11.006Z,96788.00
2022-12-01T20:54:42.524Z,96788.78
2022-12-01T20:57:09.726Z,96767.13
2022-12-01T20:59:36.467Z,96743.06
2022-12-01T21:02:03.370Z,96784.81
2022-12-01T21:04:30.115Z,96750.13
2022-12-01T21:06:57.922Z,96765.00
2022-12-01T21:09:25.448Z,96758.47
2022-12-01T21:12:10.641Z,96761.31
2022-12-01T21:15:10.798Z,96764.72
2022-12-01T21:17:44.424Z,96776.97
2022-12-01T21:20:27.160Z,96767.59
2022-12-01T21:22:56.832Z,96761.59
2022-12-01T21:25:24.468Z,96754.03
2022-12-01T21:27:51.899Z,96762.91
2022-12-01T21:30:25.843Z,96758.47
2022-12-01T21:32:53.994Z,96757.16
2022-12-01T21:35:25.276Z,96756.41
2022-12-01T21:38:00.515Z,96737.59
2022-12-01T21:40:28.444Z,96758.22
2022-12-01T21:43:01.328Z,96738.41
2022-12-01T21:45:31.147Z,96765.56
2022-12-01T21:48:12.331Z,96739.50
2022-12-01T21:50:38.910Z,96777.31
2022-12-01T21:53:18.194Z,96778.09
2022-12-01T21:55:47.672Z,96771.84
2022-12-01T21:58:23.928Z,96753.53
2022-12-01T22:00:52.601Z,96768.94
2022-12-01T22:03:39.601Z,96773.88
2022-12-01T22:06:28.715Z,96770.00
2022-12-01T22:09:00.878Z,96779.16
2022-12-01T22:11:29.996Z,96762.16
2022-12-01T22:14:09.055Z,96765.56
2022-12-01T22:16:48.764Z,96757.50
2022-12-01T22:19:15.391Z,96763.75
2022-12-01T22:21:50.052Z,96759.03
2022-12-01T22:24:24.422Z,96757.72
2022-12-01T22:26:59.849Z,96756.66
2022-12-01T22:29:32.050Z,96757.44
2022-12-01T22:32:10.936Z,96755.88
2022-12-01T22:34:38.885Z,96753.00
2022-12-01T22:37:19.563Z,96760.53
2022-12-01T22:39:49.742Z,96739.16
2022-12-01T22:42:34.673Z,96760.56
2022-12-01T22:45:19.612Z,96759.25
2022-12-01T22:47:46.283Z,96725.09
2022-12-01T22:50:26.702Z,96682.88
2022-12-01T22:52:59.174Z,96744.19
2022-12-01T22:55:25.817Z,96744.41
2022-12-01T22:57:52.501Z,96749.09
2022-12-01T23:00:25.730Z,96750.66
2022-12-01T23:02:55.989Z,96710.72
2022-12-01T23:05:28.414Z,96746.50
2022-12-01T23:07:56.617Z,96746.78
2022-12-01T23:10:34.650Z,96753.53
2022-12-01T23:13:13.498Z,96743.91
2022-12-01T23:15:44.295Z,96736.66
2022-12-01T23:18:26.885Z,96732.69
2022-12-01T23:20:56.024Z,96739.25
2022-12-01T23:23:34.538Z,96726.19
2022-12-01T23:26:07.064Z,96727.50
2022-12-01T23:28:36.922Z,96722.84
2022-12-01T23:31:03.728Z,96704.28
2022-12-01T23:33:32.534Z,96725.34
2022-12-01T23:36:15.593Z,96719.63
2022-12-01T23:38:45.244Z,96713.66
2022-12-01T23:41:27.076Z,96712.38
2022-12-01T23:43:55.731Z,96683.44
2022-12-01T23:46:28.370Z,96712.66
2022-12-01T23:49:07.208Z,96706.94
2022-12-01T23:51:40.002Z,96702.75
2022-12-01T23:54:27.116Z,96693.91
2022-12-01T23:57:00.663Z,96669.34
2022-12-01T23:59:28.275Z,96699.06
